Terminal Aerodrome Forecast
Issued by NWS Birmingham, AL

Current Version | Previous Version | Text Only | Print | Product List | Glossary On
Versions: 1 2 3 4 5 6 7 8 9 10 11 12 13 14 15 16 17 18 19 20 21 22 23 24
000
FTUS44 KBMX 041728
TAFBHM
TAF
KBHM 041728Z 0418/0518 25007KT P6SM VCTS SCT050CB
     FM041900 24010KT 4SM -TSRA BKN040CB
      TEMPO 0419/0423 1SM TSRA BKN025CB
     FM050800 19003KT P6SM VCSH OVC015=

USA.gov is the U.S. government's official web portal to all federal, state and local government web resources and services.